createdAt,value
2017-04-29T00:01:35.823Z,10.57
2017-04-29T00:04:03.259Z,11.47
2017-04-29T00:06:30.703Z,10.03
2017-04-29T00:08:58.159Z,12.98
2017-04-29T00:11:25.615Z,10.88
2017-04-29T00:13:53.063Z,11.82
2017-04-29T00:16:20.506Z,8.50
2017-04-29T00:18:48.663Z,12.78
2017-04-29T00:21:16.819Z,11.92
2017-04-29T00:23:44.265Z,10.20
2017-04-29T00:26:13.052Z,15.65
2017-04-29T00:28:40.479Z,11.50
2017-04-29T00:31:08.691Z,9.18
2017-04-29T00:33:36.104Z,9.25
2017-04-29T00:36:03.535Z,11.10
2017-04-29T00:38:30.980Z,10.13
2017-04-29T00:40:58.425Z,12.98
2017-04-29T00:43:25.878Z,12.10
2017-04-29T00:45:53.287Z,11.63
2017-04-29T00:48:21.459Z,10.25
2017-04-29T00:50:48.915Z,11.88
2017-04-29T00:53:16.355Z,11.65
2017-04-29T00:55:43.814Z,15.93
2017-04-29T00:58:11.863Z,14.10
2017-04-29T01:00:39.279Z,12.35
2017-04-29T01:03:06.708Z,13.47
2017-04-29T01:05:34.155Z,9.65
2017-04-29T01:08:01.631Z,12.30
2017-04-29T01:10:29.067Z,11.97
2017-04-29T01:12:56.535Z,11.35
2017-04-29T01:15:23.975Z,12.15
2017-04-29T01:17:51.399Z,13.22
2017-04-29T01:20:18.885Z,11.48
2017-04-29T01:22:47.048Z,10.62
2017-04-29T01:25:15.211Z,17.82
2017-04-29T01:27:42.768Z,11.18
2017-04-29T01:30:10.202Z,10.70
2017-04-29T01:32:37.623Z,9.93
2017-04-29T01:35:05.080Z,12.40
2017-04-29T01:37:32.491Z,8.07
2017-04-29T01:39:59.936Z,10.13
2017-04-29T01:42:28.108Z,7.73
2017-04-29T01:44:55.547Z,12.82
2017-04-29T01:47:23.723Z,12.57
2017-04-29T01:49:51.180Z,10.87
2017-04-29T01:52:18.603Z,9.85
2017-04-29T01:54:46.079Z,10.77
2017-04-29T01:57:13.575Z,10.38
2017-04-29T01:59:40.996Z,11.30
2017-04-29T02:02:08.915Z,8.70
2017-04-29T02:04:36.370Z,13.15
2017-04-29T02:07:03.786Z,12.90
2017-04-29T02:09:31.246Z,11.28
2017-04-29T02:11:58.696Z,11.37
2017-04-29T02:14:26.148Z,10.72
2017-04-29T02:16:53.575Z,11.08
2017-04-29T02:19:21.026Z,11.22
2017-04-29T02:21:48.438Z,10.03
2017-04-29T02:24:15.875Z,15.72
2017-04-29T02:26:43.347Z,10.63
2017-04-29T02:29:10.767Z,12.17
2017-04-29T02:31:38.187Z,10.53
2017-04-29T02:34:05.647Z,16.17
2017-04-29T02:36:33.087Z,13.93
2017-04-29T02:39:00.499Z,11.25
2017-04-29T02:41:27.951Z,14.63
2017-04-29T02:43:55.371Z,12.57
2017-04-29T02:46:22.792Z,13.83
2017-04-29T02:48:50.255Z,11.07
2017-04-29T02:51:17.667Z,15.08
2017-04-29T02:53:44.351Z,16.05
2017-04-29T02:56:12.322Z,14.03
2017-04-29T02:58:39.755Z,11.87
2017-04-29T03:01:07.179Z,13.75
2017-04-29T03:03:34.628Z,12.17
2017-04-29T03:06:02.050Z,12.47
2017-04-29T03:08:29.491Z,15.73
2017-04-29T03:10:56.971Z,10.57
2017-04-29T03:13:24.424Z,17.28
2017-04-29T03:15:52.583Z,14.00
2017-04-29T03:18:20.771Z,26.18
2017-04-29T03:20:48.199Z,14.00
2017-04-29T03:23:15.620Z,18.55
2017-04-29T03:25:43.819Z,13.28
2017-04-29T03:28:11.991Z,19.25
2017-04-29T03:30:39.407Z,15.87
2017-04-29T03:33:06.845Z,16.80
2017-04-29T03:35:34.284Z,19.50
2017-04-29T03:38:01.695Z,18.45
2017-04-29T03:40:29.126Z,23.78
2017-04-29T03:42:56.546Z,19.60
2017-04-29T03:45:23.987Z,21.12
2017-04-29T03:47:51.416Z,25.52
2017-04-29T03:50:18.835Z,25.60
2017-04-29T03:52:46.268Z,20.77
2017-04-29T03:55:13.738Z,22.28
2017-04-29T03:57:41.663Z,23.78
2017-04-29T04:00:09.112Z,21.78
2017-04-29T04:02:36.562Z,24.43
2017-04-29T04:05:03.995Z,21.67
2017-04-29T04:07:31.446Z,19.82
2017-04-29T04:09:58.916Z,22.22
2017-04-29T04:12:26.356Z,23.63
2017-04-29T04:14:53.796Z,22.53
2017-04-29T04:17:21.245Z,20.35
2017-04-29T04:19:48.666Z,22.47
2017-04-29T04:22:16.107Z,23.52
2017-04-29T04:24:43.622Z,22.75
2017-04-29T04:27:11.055Z,20.40
2017-04-29T04:29:38.804Z,26.77
2017-04-29T04:32:06.271Z,22.32
2017-04-29T04:34:33.703Z,28.13
2017-04-29T04:37:01.124Z,21.97
2017-04-29T04:39:28.602Z,18.77
2017-04-29T04:41:56.003Z,23.97
2017-04-29T04:44:23.451Z,22.68
2017-04-29T04:46:50.910Z,21.65
2017-04-29T04:49:18.331Z,23.55
2017-04-29T04:51:45.771Z,22.62
2017-04-29T04:54:13.267Z,20.72
2017-04-29T04:56:40.691Z,23.65
2017-04-29T04:59:08.124Z,21.23
2017-04-29T05:01:35.555Z,20.23
2017-04-29T05:04:02.999Z,23.48
2017-04-29T05:06:30.439Z,27.22
2017-04-29T05:08:57.925Z,21.82
2017-04-29T05:11:25.352Z,22.47
2017-04-29T05:13:52.783Z,26.73
2017-04-29T05:16:20.247Z,20.92
2017-04-29T05:18:47.679Z,22.00
2017-04-29T05:21:15.102Z,23.37
2017-04-29T05:23:43.563Z,20.50
2017-04-29T05:26:10.987Z,17.00
2017-04-29T05:28:38.419Z,21.28
2017-04-29T05:31:05.867Z,18.20
2017-04-29T05:33:33.283Z,21.88
2017-04-29T05:36:00.727Z,24.00
2017-04-29T05:38:28.163Z,20.43
2017-04-29T05:40:55.596Z,19.13
2017-04-29T05:43:23.790Z,22.17
2017-04-29T05:45:51.218Z,19.62
2017-04-29T05:48:18.647Z,18.63
2017-04-29T05:50:46.115Z,19.72
2017-04-29T05:53:13.547Z,23.58
2017-04-29T05:55:40.971Z,22.07
2017-04-29T05:58:08.438Z,19.82
2017-04-29T06:00:35.875Z,18.32
2017-04-29T06:03:03.323Z,18.52
2017-04-29T06:05:30.788Z,17.38
2017-04-29T06:07:58.224Z,17.37
2017-04-29T06:10:25.651Z,23.92
2017-04-29T06:12:53.124Z,18.85
2017-04-29T06:15:20.567Z,19.15
2017-04-29T06:17:47.984Z,18.63
2017-04-29T06:20:15.463Z,15.22
2017-04-29T06:22:43.651Z,16.42
2017-04-29T06:25:11.096Z,19.37
2017-04-29T06:27:38.879Z,14.55
2017-04-29T06:30:06.305Z,14.87
2017-04-29T06:32:33.763Z,18.10
2017-04-29T06:35:01.220Z,17.72
2017-04-29T06:37:29.407Z,19.38
2017-04-29T06:39:56.863Z,15.10
2017-04-29T06:42:24.340Z,20.92
2017-04-29T06:44:51.787Z,12.50
2017-04-29T06:47:19.247Z,16.52
2017-04-29T06:49:47.467Z,12.40
2017-04-29T06:52:14.917Z,12.78
2017-04-29T06:54:42.663Z,14.00
2017-04-29T06:57:10.110Z,14.22
2017-04-29T06:59:37.539Z,14.25
2017-04-29T07:02:04.982Z,13.82
2017-04-29T07:04:32.452Z,13.63
2017-04-29T07:06:59.175Z,11.95
2017-04-29T07:09:26.632Z,15.23
2017-04-29T07:11:54.103Z,14.42
2017-04-29T07:14:21.532Z,8.20
2017-04-29T07:16:48.967Z,10.43
2017-04-29T07:19:16.415Z,9.13
2017-04-29T07:21:43.879Z,9.23
2017-04-29T07:24:11.910Z,9.37
2017-04-29T07:26:39.926Z,5.45
2017-04-29T07:29:07.813Z,4.95
2017-04-29T07:31:35.583Z,6.18
2017-04-29T07:34:03.039Z,3.58
2017-04-29T07:36:30.467Z,3.32
2017-04-29T07:38:58.108Z,3.76
2017-04-29T07:41:25.767Z,8.24
2017-04-29T07:43:53.199Z,6.32
2017-04-29T07:46:20.652Z,7.04
2017-04-29T07:48:48.112Z,4.62
2017-04-29T07:51:15.532Z,6.30
2017-04-29T07:53:43.108Z,3.84
2017-04-29T07:56:11.311Z,4.54
2017-04-29T07:58:38.743Z,5.44
2017-04-29T08:01:06.198Z,6.04
2017-04-29T08:03:33.612Z,7.98
2017-04-29T08:06:01.790Z,3.86
2017-04-29T08:08:29.266Z,5.40
2017-04-29T08:10:56.729Z,5.26
2017-04-29T08:13:24.215Z,5.78
2017-04-29T08:15:51.631Z,9.10
2017-04-29T08:18:19.830Z,7.84
2017-04-29T08:20:47.287Z,6.20
2017-04-29T08:23:14.759Z,7.30
2017-04-29T08:25:42.723Z,7.06
2017-04-29T08:28:10.931Z,7.36
2017-04-29T08:30:38.347Z,5.64
2017-04-29T08:33:05.795Z,5.76
2017-04-29T08:35:33.248Z,5.94
2017-04-29T08:38:00.731Z,7.66
2017-04-29T08:40:28.190Z,6.16
2017-04-29T08:42:56.348Z,6.30
2017-04-29T08:45:24.523Z,5.62
2017-04-29T08:47:52.007Z,8.88
2017-04-29T08:50:19.467Z,5.16
2017-04-29T08:52:46.904Z,5.56
2017-04-29T08:55:14.368Z,7.46
2017-04-29T08:57:41.811Z,4.72
2017-04-29T09:00:09.247Z,6.46
2017-04-29T09:02:35.955Z,7.56
2017-04-29T09:05:03.408Z,4.98
2017-04-29T09:07:31.599Z,2.86
2017-04-29T09:09:59.059Z,5.46
2017-04-29T09:12:26.482Z,3.28
2017-04-29T09:14:53.920Z,5.44
2017-04-29T09:17:21.413Z,4.22
2017-04-29T09:19:48.842Z,6.72
2017-04-29T09:22:16.278Z,5.66
2017-04-29T09:24:43.843Z,7.36
2017-04-29T09:27:11.275Z,3.94
2017-04-29T09:29:38.687Z,3.20
2017-04-29T09:32:06.142Z,4.86
2017-04-29T09:34:33.582Z,3.64
2017-04-29T09:37:01.044Z,5.74
2017-04-29T09:39:28.536Z,4.76
2017-04-29T09:41:55.970Z,6.38
2017-04-29T09:44:23.404Z,6.10
2017-04-29T09:46:50.886Z,6.16
2017-04-29T09:49:18.348Z,9.12
2017-04-29T09:51:45.815Z,4.12
2017-04-29T09:54:13.982Z,8.10
2017-04-29T09:56:41.415Z,7.38
2017-04-29T09:59:09.611Z,5.06
2017-04-29T10:01:37.036Z,8.14
2017-04-29T10:04:04.459Z,6.30
2017-04-29T10:06:31.907Z,3.96
2017-04-29T10:08:59.363Z,4.82
2017-04-29T10:11:26.819Z,7.40
2017-04-29T10:13:54.292Z,6.16
2017-04-29T10:16:21.708Z,5.88
2017-04-29T10:18:49.184Z,4.38
2017-04-29T10:21:17.415Z,6.60
2017-04-29T10:23:44.854Z,8.22
2017-04-29T10:26:12.925Z,6.37
2017-04-29T10:28:40.390Z,3.60
2017-04-29T10:31:08.551Z,3.96
2017-04-29T10:33:36.739Z,6.84
2017-04-29T10:36:04.183Z,4.16
2017-04-29T10:38:31.631Z,4.76
2017-04-29T10:40:59.059Z,3.44
2017-04-29T10:43:26.555Z,4.84
2017-04-29T10:45:53.991Z,4.74
2017-04-29T10:48:21.438Z,5.84
2017-04-29T10:50:48.883Z,4.54
2017-04-29T10:53:16.352Z,3.26
2017-04-29T10:55:43.787Z,5.46
2017-04-29T10:58:11.243Z,7.66
2017-04-29T11:00:38.688Z,23.92
2017-04-29T11:03:06.143Z,4.66
2017-04-29T11:05:33.602Z,5.18
2017-04-29T11:08:01.043Z,7.12
2017-04-29T11:10:28.500Z,5.16
2017-04-29T11:12:55.932Z,4.84
2017-04-29T11:15:23.375Z,5.64
2017-04-29T11:17:50.824Z,4.42
2017-04-29T11:20:18.279Z,6.94
2017-04-29T11:22:46.457Z,5.12
2017-04-29T11:25:13.939Z,5.56
2017-04-29T11:27:41.386Z,4.88
2017-04-29T11:30:08.862Z,5.48
2017-04-29T11:32:36.303Z,5.24
2017-04-29T11:35:04.511Z,3.04
2017-04-29T11:37:31.935Z,5.04
2017-04-29T11:39:59.371Z,4.26
2017-04-29T11:42:26.851Z,5.04
2017-04-29T11:44:54.291Z,5.10
2017-04-29T11:47:21.751Z,7.88
2017-04-29T11:49:49.183Z,5.86
2017-04-29T11:52:16.631Z,6.14
2017-04-29T11:54:44.083Z,4.84
2017-04-29T11:57:11.510Z,6.42
2017-04-29T11:59:38.935Z,5.62
2017-04-29T12:02:06.393Z,6.80
2017-04-29T12:04:33.854Z,4.88
2017-04-29T12:07:01.287Z,4.90
2017-04-29T12:09:28.723Z,3.76
2017-04-29T12:11:56.157Z,4.88
2017-04-29T12:14:23.615Z,3.92
2017-04-29T12:16:51.839Z,3.92
2017-04-29T12:19:19.318Z,3.22
2017-04-29T12:21:47.503Z,4.36
2017-04-29T12:24:14.974Z,4.66
2017-04-29T12:26:43.180Z,5.48
2017-04-29T12:29:11.339Z,5.38
2017-04-29T12:31:39.510Z,6.62
2017-04-29T12:34:07.688Z,5.26
2017-04-29T12:36:35.123Z,3.30
2017-04-29T12:39:02.632Z,5.64
2017-04-29T12:41:29.410Z,3.62
2017-04-29T12:43:56.828Z,3.54
2017-04-29T12:46:24.284Z,4.60
2017-04-29T12:48:51.715Z,3.10
2017-04-29T12:51:19.147Z,5.16
2017-04-29T12:53:46.596Z,2.96
2017-04-29T12:56:14.054Z,3.14
2017-04-29T12:58:41.467Z,4.34
2017-04-29T13:01:08.935Z,6.20
2017-04-29T13:03:36.352Z,4.10
2017-04-29T13:06:03.791Z,5.16
2017-04-29T13:08:31.260Z,7.58
2017-04-29T13:10:58.696Z,13.30
2017-04-29T13:13:26.152Z,5.44
2017-04-29T13:15:53.610Z,5.64
2017-04-29T13:18:21.023Z,6.02
2017-04-29T13:20:48.508Z,6.66
2017-04-29T13:23:15.218Z,4.22
2017-04-29T13:25:42.899Z,5.02
2017-04-29T13:28:10.348Z,8.60
2017-04-29T13:30:37.791Z,3.72
2017-04-29T13:33:05.247Z,3.60
2017-04-29T13:35:32.671Z,4.60
2017-04-29T13:38:00.107Z,5.72
2017-04-29T13:40:27.539Z,3.82
2017-04-29T13:42:54.967Z,7.52
2017-04-29T13:45:22.435Z,5.88
2017-04-29T13:47:49.887Z,3.58
2017-04-29T13:50:17.356Z,4.86
2017-04-29T13:52:44.807Z,3.80
2017-04-29T13:55:12.867Z,3.38
2017-04-29T13:57:40.323Z,4.98
2017-04-29T14:00:07.763Z,3.06
2017-04-29T14:02:35.187Z,5.38
2017-04-29T14:05:02.659Z,74.82
2017-04-29T14:07:30.100Z,3.86
2017-04-29T14:09:58.295Z,29.42
2017-04-29T14:12:25.762Z,4.68
2017-04-29T14:14:53.216Z,5.24
2017-04-29T14:17:20.650Z,3.32
2017-04-29T14:19:48.112Z,3.92
2017-04-29T14:22:15.575Z,2.96
2017-04-29T14:24:43.751Z,4.18
2017-04-29T14:27:11.246Z,2.96
2017-04-29T14:29:38.695Z,3.20
2017-04-29T14:32:06.120Z,3.94
2017-04-29T14:34:33.555Z,6.44
2017-04-29T14:37:00.978Z,8.20
2017-04-29T14:39:28.398Z,2.48
2017-04-29T14:41:55.855Z,4.08
2017-04-29T14:44:23.296Z,3.44
2017-04-29T14:46:50.738Z,3.80
2017-04-29T14:49:18.195Z,3.26
2017-04-29T14:51:45.651Z,2.42
2017-04-29T14:54:13.346Z,9.22
2017-04-29T14:56:40.814Z,11.62
2017-04-29T14:59:08.248Z,2.26
2017-04-29T15:01:35.711Z,3.24
2017-04-29T15:04:03.249Z,5.26
2017-04-29T15:06:30.713Z,2.68
2017-04-29T15:08:58.167Z,3.04
2017-04-29T15:11:27.451Z,3.38
2017-04-29T15:13:55.603Z,4.36
2017-04-29T15:16:23.068Z,3.10
2017-04-29T15:18:50.528Z,3.98
2017-04-29T15:21:17.983Z,3.52
2017-04-29T15:23:45.452Z,3.26
2017-04-29T15:26:13.509Z,4.68
2017-04-29T15:28:40.915Z,3.50
2017-04-29T15:31:08.374Z,5.04
2017-04-29T15:33:35.830Z,6.36
2017-04-29T15:36:03.446Z,3.44
2017-04-29T15:38:30.935Z,3.82
2017-04-29T15:40:59.112Z,3.66
2017-04-29T15:43:27.265Z,5.54
2017-04-29T15:45:54.728Z,2.76
2017-04-29T15:48:22.159Z,2.30
2017-04-29T15:50:49.607Z,3.84
2017-04-29T15:53:17.060Z,6.30
2017-04-29T15:55:44.525Z,3.02
2017-04-29T15:58:11.952Z,4.16
2017-04-29T16:00:39.423Z,4.74
2017-04-29T16:03:06.875Z,3.62
2017-04-29T16:05:35.058Z,3.24
2017-04-29T16:08:02.511Z,2.32
2017-04-29T16:10:29.983Z,7.94
2017-04-29T16:12:57.473Z,3.54
2017-04-29T16:15:25.654Z,3.14
2017-04-29T16:17:53.092Z,3.62
2017-04-29T16:20:20.531Z,3.30
2017-04-29T16:22:47.997Z,3.64
2017-04-29T16:25:15.462Z,3.66
2017-04-29T16:27:43.612Z,2.70
2017-04-29T16:30:11.082Z,7.02
2017-04-29T16:32:39.271Z,2.94
2017-04-29T16:35:06.708Z,3.96
2017-04-29T16:37:34.151Z,2.50
2017-04-29T16:40:01.616Z,8.62
2017-04-29T16:42:29.036Z,3.48
2017-04-29T16:44:56.507Z,3.24
2017-04-29T16:47:23.974Z,12.64
2017-04-29T16:49:51.391Z,7.24
2017-04-29T16:52:18.849Z,8.58
2017-04-29T16:54:46.290Z,8.16
2017-04-29T16:57:13.731Z,2.30
2017-04-29T16:59:41.191Z,4.50
2017-04-29T17:02:09.399Z,3.62
2017-04-29T17:04:36.860Z,2.92
2017-04-29T17:07:04.386Z,2.42
2017-04-29T17:09:31.853Z,3.22
2017-04-29T17:12:00.706Z,1.50
2017-04-29T17:14:28.246Z,3.34
2017-04-29T17:16:55.725Z,1.48
2017-04-29T17:19:23.179Z,2.42
2017-04-29T17:21:51.363Z,1.72
2017-04-29T17:24:18.806Z,3.44
2017-04-29T17:26:46.280Z,1.66
2017-04-29T17:29:13.760Z,2.22
2017-04-29T17:31:41.188Z,1.80
2017-04-29T17:34:08.658Z,2.26
2017-04-29T17:36:36.114Z,3.70
2017-04-29T17:39:03.613Z,3.38
2017-04-29T17:41:31.046Z,3.84
2017-04-29T17:43:58.475Z,1.58
2017-04-29T17:46:25.927Z,1.92
2017-04-29T17:48:53.369Z,3.52
2017-04-29T17:51:20.819Z,2.20
2017-04-29T17:53:49.008Z,1.97
2017-04-29T17:56:16.489Z,1.77
2017-04-29T17:58:43.944Z,2.10
2017-04-29T18:01:11.403Z,2.23
2017-04-29T18:03:39.611Z,1.45
2017-04-29T18:06:07.043Z,1.75
2017-04-29T18:08:34.479Z,3.07
2017-04-29T18:11:01.919Z,2.70
2017-04-29T18:13:29.366Z,4.25
2017-04-29T18:15:56.799Z,1.75
2017-04-29T18:18:24.263Z,4.65
2017-04-29T18:20:51.729Z,6.80
2017-04-29T18:23:19.164Z,3.07
2017-04-29T18:25:46.616Z,1.75
2017-04-29T18:28:14.055Z,1.70
2017-04-29T18:30:41.482Z,3.10
2017-04-29T18:33:08.937Z,2.27
2017-04-29T18:35:36.423Z,3.53
2017-04-29T18:38:03.920Z,2.30
2017-04-29T18:40:31.365Z,2.07
2017-04-29T18:42:58.803Z,1.72
2017-04-29T18:45:26.275Z,1.78
2017-04-29T18:47:53.732Z,1.88
2017-04-29T18:50:21.175Z,1.37
2017-04-29T18:52:48.616Z,1.58
2017-04-29T18:55:16.095Z,2.55
2017-04-29T18:57:43.786Z,2.18
2017-04-29T19:00:12.000Z,2.22
2017-04-29T19:02:39.453Z,4.57
2017-04-29T19:05:06.896Z,2.37
2017-04-29T19:07:34.335Z,2.20
2017-04-29T19:10:01.787Z,3.17
2017-04-29T19:12:29.247Z,2.92
2017-04-29T19:14:57.423Z,2.65
2017-04-29T19:17:24.891Z,3.17
2017-04-29T19:19:52.319Z,4.65
2017-04-29T19:22:19.776Z,2.02
2017-04-29T19:24:47.220Z,3.93
2017-04-29T19:27:14.678Z,3.45
2017-04-29T19:29:42.171Z,5.02
2017-04-29T19:32:09.963Z,2.52
2017-04-29T19:34:37.399Z,2.85
2017-04-29T19:37:04.807Z,2.50
2017-04-29T19:39:32.271Z,2.37
2017-04-29T19:41:59.767Z,3.00
2017-04-29T19:44:27.941Z,2.77
2017-04-29T19:46:55.403Z,1.83
2017-04-29T19:49:22.871Z,2.45
2017-04-29T19:51:50.327Z,3.45
2017-04-29T19:54:18.176Z,5.93
2017-04-29T19:56:45.652Z,2.83
2017-04-29T19:59:13.490Z,2.58
2017-04-29T20:01:41.002Z,3.78
2017-04-29T20:04:08.499Z,9.27
2017-04-29T20:06:36.064Z,3.58
2017-04-29T20:09:03.633Z,3.87
2017-04-29T20:11:31.416Z,6.93
2017-04-29T20:13:59.132Z,2.83
2017-04-29T20:16:27.005Z,4.90
2017-04-29T20:18:54.530Z,3.88
2017-04-29T20:21:22.004Z,3.73
2017-04-29T20:23:49.471Z,3.83
2017-04-29T20:26:16.921Z,3.93
2017-04-29T20:28:44.392Z,3.98
2017-04-29T20:31:11.922Z,3.25
2017-04-29T20:33:39.398Z,2.73
2017-04-29T20:36:07.576Z,4.57
2017-04-29T20:38:35.079Z,3.87
2017-04-29T20:41:02.551Z,3.40
2017-04-29T20:43:29.984Z,2.78
2017-04-29T20:45:58.203Z,4.05
2017-04-29T20:48:25.736Z,3.40
2017-04-29T20:50:53.183Z,6.35
2017-04-29T20:53:20.638Z,2.95
2017-04-29T20:55:48.079Z,5.23
2017-04-29T20:58:14.779Z,3.48
2017-04-29T21:00:42.510Z,3.43
2017-04-29T21:03:09.987Z,4.62
2017-04-29T21:05:37.426Z,5.00
2017-04-29T21:08:04.904Z,4.53
2017-04-29T21:10:32.348Z,5.22
2017-04-29T21:12:59.796Z,4.08
2017-04-29T21:15:27.275Z,4.92
2017-04-29T21:17:54.723Z,5.55
2017-04-29T21:20:22.186Z,5.87
2017-04-29T21:22:50.755Z,4.60
2017-04-29T21:25:20.072Z,3.83
2017-04-29T21:27:47.567Z,3.40
2017-04-29T21:30:15.106Z,3.92
2017-04-29T21:32:44.019Z,5.22
2017-04-29T21:35:12.844Z,4.87
2017-04-29T21:37:40.323Z,5.78
2017-04-29T21:40:08.530Z,4.60
2017-04-29T21:42:36.020Z,5.70
2017-04-29T21:45:04.238Z,5.03
2017-04-29T21:47:31.684Z,4.57
2017-04-29T21:49:59.131Z,5.20
2017-04-29T21:52:26.615Z,4.20
2017-04-29T21:54:54.803Z,5.02
2017-04-29T21:57:22.232Z,4.52
2017-04-29T21:59:49.714Z,8.95
2017-04-29T22:02:17.138Z,4.38
2017-04-29T22:04:44.574Z,4.55
2017-04-29T22:07:12.036Z,4.53
2017-04-29T22:09:39.484Z,4.18
2017-04-29T22:12:06.902Z,4.60
2017-04-29T22:14:34.383Z,4.38
2017-04-29T22:17:01.832Z,4.07
2017-04-29T22:19:30.051Z,5.75
2017-04-29T22:21:57.495Z,4.25
2017-04-29T22:24:24.931Z,3.73
2017-04-29T22:26:52.374Z,3.58
2017-04-29T22:29:19.831Z,8.57
2017-04-29T22:31:47.263Z,4.12
2017-04-29T22:34:14.758Z,4.72
2017-04-29T22:36:42.878Z,4.25
2017-04-29T22:39:10.352Z,4.92
2017-04-29T22:41:37.843Z,3.98
2017-04-29T22:44:05.287Z,3.88
2017-04-29T22:46:32.714Z,3.07
2017-04-29T22:49:00.307Z,5.63
2017-04-29T22:51:28.491Z,4.55
2017-04-29T22:53:56.415Z,6.05
2017-04-29T22:56:24.038Z,6.05
2017-04-29T22:58:51.730Z,3.75
2017-04-29T23:01:19.195Z,7.72
2017-04-29T23:03:46.631Z,4.92
2017-04-29T23:06:14.082Z,5.37
2017-04-29T23:08:45.587Z,4.73
2017-04-29T23:11:13.063Z,6.08
2017-04-29T23:13:40.543Z,3.78
2017-04-29T23:16:07.995Z,4.82
2017-04-29T23:18:35.512Z,3.97
2017-04-29T23:21:02.944Z,6.07
2017-04-29T23:23:30.535Z,6.22
2017-04-29T23:25:57.966Z,6.52
2017-04-29T23:28:25.427Z,6.73
2017-04-29T23:30:52.911Z,5.83
2017-04-29T23:33:20.347Z,6.33
2017-04-29T23:35:47.974Z,4.82
2017-04-29T23:38:15.427Z,3.52
2017-04-29T23:40:43.468Z,5.58
2017-04-29T23:43:10.927Z,6.08
2017-04-29T23:45:38.394Z,4.88
2017-04-29T23:48:09.071Z,5.52
2017-04-29T23:50:36.523Z,3.72
2017-04-29T23:53:03.991Z,6.18
2017-04-29T23:55:31.477Z,3.63
2017-04-29T23:57:58.890Z,4.90
